DAL2409 KJFK-KMSP
Flight info
| Callsign | DAL2409 |
|---|---|
| Flight time | 2h 41m |
| Altitude | 36000 |
| Route | COATE Q436 RAAKK Q438 BERYS Q440 IDIOM MUSCL4 |
| Aircraft | A321/M-SDE3FGHIRWY/LB1 |
Departure
| Time | 2026-05-07 23:41 |
|---|---|
| Airport | John F. Kennedy International Airport (KJFK) |
Arrival
| Time | 2026-05-08 02:22 |
|---|---|
| Airport | Minneapolis–Saint Paul International Airport / Wold–Chamberlain Field (KMSP) |
| Time | Latitude | Longitude | Altitude | Speed | Heading |
|---|---|---|---|---|---|
| 2026-05-07 23:07 | 40.63782 | -73.78024 | 28 ft | 0 kts | 262° |
| 2026-05-07 23:29 | 40.63782 | -73.78022 | 23 ft | 2 kts | 262° |
| 2026-05-07 23:29 | 40.63785 | -73.77988 | 26 ft | 4 kts | 262° |
| 2026-05-07 23:30 | 40.63789 | -73.77959 | 25 ft | 4 kts | 248° |
| 2026-05-07 23:30 | 40.63804 | -73.77933 | 25 ft | 4 kts | 206° |
| 2026-05-07 23:30 | 40.63829 | -73.77925 | 24 ft | 4 kts | 178° |
| 2026-05-07 23:30 | 40.63842 | -73.77926 | 24 ft | 3 kts | 173° |
| 2026-05-07 23:31 | 40.63816 | -73.77922 | 24 ft | 4 kts | 173° |
| 2026-05-07 23:31 | 40.63807 | -73.77920 | 25 ft | 0 kts | 173° |
| 2026-05-07 23:36 | 40.63802 | -73.77920 | 24 ft | 4 kts | 173° |
| 2026-05-07 23:36 | 40.63755 | -73.77912 | 24 ft | 8 kts | 173° |
| 2026-05-07 23:36 | 40.63699 | -73.77903 | 23 ft | 8 kts | 173° |
| 2026-05-07 23:37 | 40.63640 | -73.77894 | 23 ft | 9 kts | 172° |
| 2026-05-07 23:37 | 40.63582 | -73.77871 | 23 ft | 9 kts | 142° |
| 2026-05-07 23:37 | 40.63536 | -73.77818 | 22 ft | 8 kts | 182° |
| 2026-05-07 23:37 | 40.63488 | -73.77843 | 24 ft | 7 kts | 212° |
| 2026-05-07 23:38 | 40.63450 | -73.77872 | 24 ft | 6 kts | 212° |
| 2026-05-07 23:38 | 40.63412 | -73.77904 | 24 ft | 7 kts | 213° |
| 2026-05-07 23:38 | 40.63371 | -73.77939 | 26 ft | 7 kts | 212° |
| 2026-05-07 23:38 | 40.63328 | -73.77970 | 25 ft | 7 kts | 205° |
| 2026-05-07 23:39 | 40.63291 | -73.77989 | 29 ft | 5 kts | 199° |
| 2026-05-07 23:39 | 40.63262 | -73.78001 | 27 ft | 5 kts | 196° |
| 2026-05-07 23:39 | 40.63203 | -73.78017 | 27 ft | 12 kts | 198° |
| 2026-05-07 23:39 | 40.63217 | -73.78098 | 25 ft | 4 kts | 300° |
| 2026-05-07 23:40 | 40.63231 | -73.78130 | 23 ft | 14 kts | 300° |
| 2026-05-07 23:40 | 40.63394 | -73.78489 | 23 ft | 79 kts | 301° |
| 2026-05-07 23:40 | 40.63778 | -73.79332 | 21 ft | 133 kts | 301° |
| 2026-05-07 23:40 | 40.64316 | -73.80531 | 126 ft | 163 kts | 304° |
| 2026-05-07 23:41 | 40.64854 | -73.81847 | 634 ft | 166 kts | 301° |
| 2026-05-07 23:41 | 40.65118 | -73.83358 | 1067 ft | 180 kts | 261° |
| 2026-05-07 23:41 | 40.64416 | -73.84754 | 1635 ft | 193 kts | 219° |
| 2026-05-07 23:41 | 40.63235 | -73.85743 | 1908 ft | 211 kts | 215° |
| 2026-05-07 23:42 | 40.61987 | -73.86822 | 2276 ft | 222 kts | 216° |
| 2026-05-07 23:42 | 40.60700 | -73.87974 | 2964 ft | 224 kts | 216° |
| 2026-05-07 23:42 | 40.59443 | -73.89198 | 3737 ft | 226 kts | 226° |
| 2026-05-07 23:42 | 40.58298 | -73.90750 | 4139 ft | 248 kts | 229° |
| 2026-05-07 23:43 | 40.57063 | -73.92458 | 4648 ft | 265 kts | 228° |
| 2026-05-07 23:43 | 40.55648 | -73.94069 | 4941 ft | 272 kts | 214° |
| 2026-05-07 23:43 | 40.54044 | -73.95391 | 5007 ft | 271 kts | 213° |
| 2026-05-07 23:43 | 40.52438 | -73.96691 | 5011 ft | 271 kts | 213° |
| 2026-05-07 23:44 | 40.50855 | -73.97968 | 5014 ft | 271 kts | 213° |
| 2026-05-07 23:44 | 40.49251 | -73.99265 | 5013 ft | 271 kts | 213° |
| 2026-05-07 23:44 | 40.47649 | -74.00563 | 5010 ft | 270 kts | 213° |
| 2026-05-07 23:44 | 40.46065 | -74.01854 | 5011 ft | 267 kts | 214° |
| 2026-05-07 23:45 | 40.44491 | -74.03137 | 5008 ft | 266 kts | 213° |
| 2026-05-07 23:45 | 40.42914 | -74.04420 | 5011 ft | 267 kts | 213° |
| 2026-05-07 23:45 | 40.41331 | -74.05708 | 5012 ft | 268 kts | 213° |
| 2026-05-07 23:45 | 40.39745 | -74.06998 | 5021 ft | 268 kts | 213° |
| 2026-05-07 23:46 | 40.38179 | -74.08271 | 5020 ft | 268 kts | 213° |
| 2026-05-07 23:46 | 40.36598 | -74.09556 | 5020 ft | 268 kts | 213° |
| 2026-05-07 23:46 | 40.35013 | -74.10844 | 5021 ft | 268 kts | 213° |
| 2026-05-07 23:46 | 40.33426 | -74.12136 | 5022 ft | 268 kts | 214° |
| 2026-05-07 23:47 | 40.32041 | -74.13610 | 5020 ft | 266 kts | 230° |
| 2026-05-07 23:47 | 40.31015 | -74.15599 | 5025 ft | 264 kts | 246° |
| 2026-05-07 23:47 | 40.30479 | -74.17882 | 5026 ft | 262 kts | 263° |
| 2026-05-07 23:47 | 40.30475 | -74.20258 | 5037 ft | 261 kts | 280° |
| 2026-05-07 23:48 | 40.30989 | -74.22498 | 5054 ft | 261 kts | 295° |
| 2026-05-07 23:48 | 40.31969 | -74.24483 | 5033 ft | 261 kts | 312° |
| 2026-05-07 23:48 | 40.33365 | -74.25997 | 5025 ft | 261 kts | 329° |
| 2026-05-07 23:48 | 40.35026 | -74.26965 | 5030 ft | 262 kts | 337° |
| 2026-05-07 23:49 | 40.36714 | -74.27870 | 5055 ft | 262 kts | 336° |
| 2026-05-07 23:49 | 40.38393 | -74.28795 | 5054 ft | 262 kts | 336° |
| 2026-05-07 23:49 | 40.40079 | -74.29707 | 5051 ft | 262 kts | 336° |
| 2026-05-07 23:49 | 40.41769 | -74.30606 | 5049 ft | 262 kts | 337° |
| 2026-05-07 23:50 | 40.43460 | -74.31502 | 5042 ft | 262 kts | 337° |
| 2026-05-07 23:50 | 40.45147 | -74.32409 | 5507 ft | 265 kts | 336° |
| 2026-05-07 23:50 | 40.46856 | -74.33334 | 6475 ft | 266 kts | 336° |
| 2026-05-07 23:50 | 40.48566 | -74.34259 | 7372 ft | 266 kts | 335° |
| 2026-05-07 23:51 | 40.50288 | -74.35189 | 8216 ft | 269 kts | 334° |
| 2026-05-07 23:51 | 40.52031 | -74.36127 | 9042 ft | 272 kts | 334° |
| 2026-05-07 23:51 | 40.53787 | -74.37070 | 9884 ft | 274 kts | 333° |
| 2026-05-07 23:51 | 40.55573 | -74.38035 | 10442 ft | 285 kts | 332° |
| 2026-05-07 23:52 | 40.57475 | -74.39071 | 10752 ft | 305 kts | 332° |
| 2026-05-07 23:52 | 40.59469 | -74.40158 | 11058 ft | 323 kts | 332° |
| 2026-05-07 23:52 | 40.61577 | -74.41301 | 11590 ft | 332 kts | 331° |
| 2026-05-07 23:52 | 40.63742 | -74.42458 | 12213 ft | 339 kts | 331° |
| 2026-05-07 23:53 | 40.65940 | -74.43630 | 12925 ft | 342 kts | 330° |
| 2026-05-07 23:53 | 40.68154 | -74.44832 | 13619 ft | 347 kts | 329° |
| 2026-05-07 23:53 | 40.70404 | -74.46051 | 14226 ft | 351 kts | 329° |
| 2026-05-07 23:53 | 40.72670 | -74.47279 | 14915 ft | 353 kts | 329° |
| 2026-05-07 23:54 | 40.74945 | -74.48508 | 15605 ft | 355 kts | 329° |
| 2026-05-07 23:54 | 40.77241 | -74.49747 | 16228 ft | 359 kts | 329° |
| 2026-05-07 23:54 | 40.79563 | -74.51005 | 16854 ft | 363 kts | 328° |
| 2026-05-07 23:54 | 40.81879 | -74.52273 | 17396 ft | 368 kts | 328° |
| 2026-05-07 23:55 | 40.84264 | -74.53569 | 17970 ft | 373 kts | 328° |
| 2026-05-07 23:55 | 40.86677 | -74.54870 | 18511 ft | 376 kts | 328° |
| 2026-05-07 23:55 | 40.89110 | -74.56177 | 19034 ft | 379 kts | 328° |
| 2026-05-07 23:55 | 40.91563 | -74.57489 | 19574 ft | 381 kts | 328° |
| 2026-05-07 23:56 | 40.94031 | -74.58812 | 20106 ft | 384 kts | 328° |
| 2026-05-07 23:56 | 40.96454 | -74.60120 | 20665 ft | 386 kts | 328° |
| 2026-05-07 23:56 | 40.98941 | -74.61475 | 21185 ft | 388 kts | 327° |
| 2026-05-07 23:56 | 41.01408 | -74.62827 | 21700 ft | 390 kts | 327° |
| 2026-05-07 23:57 | 41.03924 | -74.64207 | 22214 ft | 393 kts | 327° |
| 2026-05-07 23:57 | 41.06456 | -74.65595 | 22695 ft | 395 kts | 327° |
| 2026-05-07 23:57 | 41.09007 | -74.66989 | 23198 ft | 398 kts | 327° |
| 2026-05-07 23:57 | 41.11447 | -74.68618 | 23631 ft | 387 kts | 316° |
| 2026-05-07 23:58 | 41.13537 | -74.70776 | 24033 ft | 376 kts | 306° |
| 2026-05-07 23:58 | 41.15226 | -74.73346 | 24461 ft | 365 kts | 297° |
| 2026-05-07 23:58 | 41.16540 | -74.76181 | 24889 ft | 360 kts | 291° |
| 2026-05-07 23:58 | 41.17771 | -74.79026 | 25304 ft | 361 kts | 291° |
| 2026-05-07 23:59 | 41.19027 | -74.81920 | 25767 ft | 362 kts | 291° |
| 2026-05-07 23:59 | 41.20290 | -74.84821 | 26193 ft | 363 kts | 291° |
| 2026-05-07 23:59 | 41.21556 | -74.87728 | 26616 ft | 364 kts | 291° |
| 2026-05-07 23:59 | 41.22821 | -74.90638 | 27021 ft | 365 kts | 291° |
| 2026-05-08 00:00 | 41.24090 | -74.93567 | 27416 ft | 366 kts | 291° |
| 2026-05-08 00:00 | 41.25363 | -74.96507 | 27807 ft | 367 kts | 291° |
| 2026-05-08 00:00 | 41.26638 | -74.99456 | 28203 ft | 368 kts | 291° |
| 2026-05-08 00:00 | 41.27899 | -75.02376 | 28577 ft | 369 kts | 291° |
| 2026-05-08 00:01 | 41.29179 | -75.05344 | 28955 ft | 371 kts | 291° |
| 2026-05-08 00:01 | 41.30463 | -75.08320 | 29355 ft | 371 kts | 291° |
| 2026-05-08 00:01 | 41.31750 | -75.11304 | 29704 ft | 372 kts | 291° |
| 2026-05-08 00:01 | 41.33041 | -75.14293 | 30026 ft | 374 kts | 291° |
| 2026-05-08 00:02 | 41.34340 | -75.17300 | 30270 ft | 376 kts | 291° |
| 2026-05-08 00:02 | 41.35642 | -75.20323 | 30548 ft | 377 kts | 291° |
| 2026-05-08 00:02 | 41.36946 | -75.23361 | 30825 ft | 379 kts | 291° |
| 2026-05-08 00:02 | 41.38252 | -75.26409 | 31167 ft | 379 kts | 291° |
| 2026-05-08 00:03 | 41.39537 | -75.29410 | 31562 ft | 377 kts | 291° |
| 2026-05-08 00:03 | 41.40832 | -75.32445 | 31933 ft | 377 kts | 291° |
| 2026-05-08 00:03 | 41.42122 | -75.35468 | 32319 ft | 376 kts | 291° |
| 2026-05-08 00:03 | 41.43413 | -75.38489 | 32689 ft | 375 kts | 291° |
| 2026-05-08 00:04 | 41.44701 | -75.41506 | 33060 ft | 374 kts | 291° |
| 2026-05-08 00:04 | 41.45987 | -75.44523 | 33408 ft | 375 kts | 291° |
| 2026-05-08 00:04 | 41.47267 | -75.47551 | 33696 ft | 374 kts | 290° |
| 2026-05-08 00:04 | 41.48285 | -75.50700 | 33982 ft | 368 kts | 284° |
| 2026-05-08 00:05 | 41.49189 | -75.53850 | 34305 ft | 369 kts | 284° |
| 2026-05-08 00:05 | 41.50108 | -75.57050 | 34536 ft | 370 kts | 284° |
| 2026-05-08 00:05 | 41.51030 | -75.60257 | 34774 ft | 371 kts | 284° |
| 2026-05-08 00:05 | 41.51955 | -75.63470 | 35048 ft | 371 kts | 284° |
| 2026-05-08 00:06 | 41.52880 | -75.66687 | 35286 ft | 371 kts | 284° |
| 2026-05-08 00:06 | 41.53802 | -75.69902 | 35515 ft | 372 kts | 284° |
| 2026-05-08 00:06 | 41.54725 | -75.73130 | 35755 ft | 373 kts | 284° |
| 2026-05-08 00:06 | 41.55649 | -75.76367 | 35865 ft | 372 kts | 284° |
| 2026-05-08 00:07 | 41.57469 | -75.82752 | 35888 ft | 369 kts | 284° |
| 2026-05-08 00:07 | 41.59288 | -75.89167 | 35887 ft | 369 kts | 284° |
| 2026-05-08 00:08 | 41.61110 | -75.95573 | 35884 ft | 369 kts | 284° |
| 2026-05-08 00:08 | 41.62926 | -76.01987 | 35884 ft | 369 kts | 284° |
| 2026-05-08 00:09 | 41.64737 | -76.08404 | 35882 ft | 369 kts | 284° |
| 2026-05-08 00:09 | 41.66548 | -76.14823 | 35939 ft | 369 kts | 284° |
| 2026-05-08 00:10 | 41.68334 | -76.21194 | 35897 ft | 368 kts | 284° |
| 2026-05-08 00:10 | 41.70126 | -76.27597 | 35889 ft | 367 kts | 284° |
| 2026-05-08 00:11 | 41.71919 | -76.34000 | 35887 ft | 367 kts | 284° |
| 2026-05-08 00:11 | 41.73705 | -76.40402 | 35883 ft | 368 kts | 284° |
| 2026-05-08 00:12 | 41.75471 | -76.46780 | 35880 ft | 368 kts | 284° |
| 2026-05-08 00:12 | 41.77251 | -76.53208 | 35912 ft | 369 kts | 284° |
| 2026-05-08 00:13 | 41.79037 | -76.59651 | 35897 ft | 369 kts | 284° |
| 2026-05-08 00:13 | 41.80821 | -76.66092 | 35898 ft | 369 kts | 284° |
| 2026-05-08 00:14 | 41.82586 | -76.72502 | 35896 ft | 369 kts | 284° |
| 2026-05-08 00:14 | 41.84351 | -76.78964 | 35896 ft | 369 kts | 284° |
| 2026-05-08 00:15 | 41.86124 | -76.85425 | 35923 ft | 369 kts | 284° |
| 2026-05-08 00:15 | 41.87597 | -76.90820 | 35922 ft | 373 kts | 284° |
| 2026-05-08 00:16 | 41.89669 | -76.98430 | 35915 ft | 374 kts | 284° |
| 2026-05-08 00:16 | 41.91456 | -77.04996 | 35911 ft | 375 kts | 284° |
| 2026-05-08 00:17 | 41.92933 | -77.10466 | 35916 ft | 375 kts | 284° |
| 2026-05-08 00:17 | 41.94697 | -77.17042 | 35909 ft | 375 kts | 284° |
| 2026-05-08 00:18 | 41.96754 | -77.24694 | 35940 ft | 374 kts | 284° |
| 2026-05-08 00:18 | 41.98235 | -77.30204 | 35925 ft | 375 kts | 284° |
| 2026-05-08 00:19 | 41.99993 | -77.36752 | 35924 ft | 375 kts | 284° |
| 2026-05-08 00:19 | 42.01757 | -77.43361 | 35935 ft | 376 kts | 284° |
| 2026-05-08 00:20 | 42.03546 | -77.49965 | 35930 ft | 376 kts | 285° |
| 2026-05-08 00:20 | 42.05350 | -77.56571 | 35942 ft | 376 kts | 285° |
| 2026-05-08 00:21 | 42.07148 | -77.63174 | 35966 ft | 376 kts | 285° |
| 2026-05-08 00:21 | 42.08930 | -77.69747 | 35967 ft | 376 kts | 285° |
| 2026-05-08 00:22 | 42.10715 | -77.76372 | 35966 ft | 376 kts | 285° |
| 2026-05-08 00:22 | 42.12496 | -77.82999 | 35926 ft | 376 kts | 285° |
| 2026-05-08 00:23 | 42.14271 | -77.89628 | 35917 ft | 376 kts | 285° |
| 2026-05-08 00:23 | 42.16047 | -77.96260 | 35945 ft | 376 kts | 285° |
| 2026-05-08 00:24 | 42.17817 | -78.02887 | 35926 ft | 376 kts | 285° |
| 2026-05-08 00:24 | 42.19570 | -78.09478 | 35938 ft | 376 kts | 285° |
| 2026-05-08 00:25 | 42.21330 | -78.16120 | 35924 ft | 376 kts | 285° |
| 2026-05-08 00:25 | 42.23085 | -78.22766 | 35914 ft | 376 kts | 285° |
| 2026-05-08 00:26 | 42.24829 | -78.29426 | 35909 ft | 376 kts | 284° |
| 2026-05-08 00:26 | 42.26495 | -78.36065 | 35907 ft | 376 kts | 284° |
| 2026-05-08 00:27 | 42.28140 | -78.42761 | 35908 ft | 376 kts | 284° |
| 2026-05-08 00:27 | 42.29783 | -78.49453 | 35910 ft | 376 kts | 284° |
| 2026-05-08 00:28 | 42.31433 | -78.56151 | 35919 ft | 376 kts | 284° |
| 2026-05-08 00:28 | 42.33082 | -78.62854 | 35927 ft | 376 kts | 284° |
| 2026-05-08 00:29 | 42.34726 | -78.69566 | 35952 ft | 376 kts | 284° |
| 2026-05-08 00:29 | 42.36359 | -78.76233 | 35964 ft | 376 kts | 284° |
| 2026-05-08 00:30 | 42.37997 | -78.82954 | 35963 ft | 376 kts | 284° |
| 2026-05-08 00:30 | 42.39633 | -78.89676 | 35965 ft | 376 kts | 284° |
| 2026-05-08 00:31 | 42.41275 | -78.96399 | 35966 ft | 376 kts | 284° |
| 2026-05-08 00:31 | 42.42926 | -79.03123 | 35968 ft | 377 kts | 284° |
| 2026-05-08 00:32 | 42.44580 | -79.09851 | 35989 ft | 377 kts | 284° |
| 2026-05-08 00:32 | 42.46213 | -79.16533 | 35981 ft | 376 kts | 284° |
| 2026-05-08 00:33 | 42.47849 | -79.23266 | 35978 ft | 376 kts | 284° |
| 2026-05-08 00:33 | 42.49480 | -79.29997 | 35975 ft | 376 kts | 284° |
| 2026-05-08 00:34 | 42.51106 | -79.36727 | 35971 ft | 376 kts | 284° |
| 2026-05-08 00:34 | 42.52716 | -79.43410 | 35986 ft | 375 kts | 284° |
| 2026-05-08 00:35 | 42.54331 | -79.50138 | 35996 ft | 376 kts | 284° |
| 2026-05-08 00:35 | 42.55950 | -79.56898 | 35960 ft | 377 kts | 284° |
| 2026-05-08 00:36 | 42.57572 | -79.63679 | 35961 ft | 378 kts | 284° |
| 2026-05-08 00:36 | 42.59195 | -79.70473 | 35960 ft | 379 kts | 284° |
| 2026-05-08 00:37 | 42.60792 | -79.77237 | 35958 ft | 378 kts | 282° |
| 2026-05-08 00:38 | 42.61578 | -79.87789 | 35972 ft | 376 kts | 272° |
| 2026-05-08 00:38 | 42.61889 | -79.94873 | 35968 ft | 376 kts | 272° |
| 2026-05-08 00:39 | 42.62193 | -80.01966 | 35964 ft | 376 kts | 272° |
| 2026-05-08 00:39 | 42.62501 | -80.09014 | 35963 ft | 376 kts | 272° |
| 2026-05-08 00:40 | 42.62811 | -80.16111 | 35962 ft | 377 kts | 272° |
| 2026-05-08 00:40 | 42.63111 | -80.23214 | 35973 ft | 377 kts | 272° |
| 2026-05-08 00:41 | 42.63405 | -80.30321 | 35968 ft | 377 kts | 272° |
| 2026-05-08 00:41 | 42.63693 | -80.37383 | 35967 ft | 377 kts | 272° |
| 2026-05-08 00:42 | 42.63972 | -80.44484 | 35972 ft | 377 kts | 272° |
| 2026-05-08 00:42 | 42.64248 | -80.51594 | 35971 ft | 377 kts | 272° |
| 2026-05-08 00:43 | 42.64506 | -80.58709 | 35973 ft | 377 kts | 272° |
| 2026-05-08 00:43 | 42.64752 | -80.65834 | 35970 ft | 378 kts | 272° |
| 2026-05-08 00:44 | 42.64990 | -80.72968 | 35966 ft | 378 kts | 272° |
| 2026-05-08 00:44 | 42.65225 | -80.80055 | 35958 ft | 378 kts | 272° |
| 2026-05-08 00:45 | 42.65464 | -80.87178 | 35962 ft | 378 kts | 272° |
| 2026-05-08 00:45 | 42.65700 | -80.94294 | 35962 ft | 377 kts | 272° |
| 2026-05-08 00:46 | 42.65913 | -81.01404 | 35969 ft | 377 kts | 271° |
| 2026-05-08 00:46 | 42.66127 | -81.08516 | 35956 ft | 377 kts | 272° |
| 2026-05-08 00:47 | 42.66345 | -81.15623 | 35966 ft | 376 kts | 271° |
| 2026-05-08 00:47 | 42.66548 | -81.22675 | 35961 ft | 377 kts | 271° |
| 2026-05-08 00:48 | 42.67025 | -81.29758 | 35967 ft | 377 kts | 277° |
| 2026-05-08 00:48 | 42.67850 | -81.36807 | 35967 ft | 378 kts | 277° |
| 2026-05-08 00:49 | 42.68668 | -81.43859 | 35965 ft | 378 kts | 277° |
| 2026-05-08 00:49 | 42.69482 | -81.50918 | 35954 ft | 378 kts | 277° |
| 2026-05-08 00:50 | 42.70283 | -81.57935 | 35962 ft | 378 kts | 277° |
| 2026-05-08 00:50 | 42.71088 | -81.64992 | 35962 ft | 378 kts | 277° |
| 2026-05-08 00:51 | 42.71887 | -81.72044 | 35951 ft | 378 kts | 277° |
| 2026-05-08 00:51 | 42.72679 | -81.79117 | 35958 ft | 379 kts | 277° |
| 2026-05-08 00:52 | 42.73466 | -81.86210 | 35959 ft | 380 kts | 277° |
| 2026-05-08 00:52 | 42.74258 | -81.93273 | 35953 ft | 381 kts | 277° |
| 2026-05-08 00:53 | 42.75047 | -82.00404 | 35951 ft | 381 kts | 277° |
| 2026-05-08 00:53 | 42.75836 | -82.07548 | 35953 ft | 382 kts | 277° |
| 2026-05-08 00:54 | 42.76612 | -82.14696 | 35957 ft | 382 kts | 277° |
| 2026-05-08 00:54 | 42.77383 | -82.21859 | 35962 ft | 383 kts | 277° |
| 2026-05-08 00:55 | 42.78152 | -82.28978 | 35963 ft | 383 kts | 277° |
| 2026-05-08 00:55 | 42.78921 | -82.36147 | 35965 ft | 383 kts | 277° |
| 2026-05-08 00:56 | 42.79684 | -82.43317 | 35960 ft | 383 kts | 277° |
| 2026-05-08 00:56 | 42.80443 | -82.50498 | 35947 ft | 383 kts | 277° |
| 2026-05-08 00:57 | 42.81216 | -82.57676 | 35937 ft | 384 kts | 278° |
| 2026-05-08 00:57 | 42.82174 | -82.64784 | 35934 ft | 384 kts | 280° |
| 2026-05-08 00:58 | 42.83202 | -82.71917 | 35928 ft | 384 kts | 280° |
| 2026-05-08 00:58 | 42.84201 | -82.79066 | 35926 ft | 384 kts | 279° |
| 2026-05-08 00:59 | 42.85163 | -82.86227 | 35926 ft | 384 kts | 279° |
| 2026-05-08 00:59 | 42.86111 | -82.93333 | 35929 ft | 384 kts | 279° |
| 2026-05-08 01:00 | 42.87060 | -83.00489 | 35930 ft | 384 kts | 280° |
| 2026-05-08 01:00 | 42.88003 | -83.07648 | 35946 ft | 383 kts | 279° |
| 2026-05-08 01:01 | 42.88948 | -83.14800 | 35952 ft | 383 kts | 279° |
| 2026-05-08 01:01 | 42.89892 | -83.21957 | 35956 ft | 383 kts | 279° |
| 2026-05-08 01:02 | 42.90866 | -83.29046 | 35953 ft | 383 kts | 284° |
| 2026-05-08 01:02 | 42.92905 | -83.35773 | 35956 ft | 385 kts | 292° |
| 2026-05-08 01:03 | 42.95159 | -83.42396 | 35954 ft | 385 kts | 292° |
| 2026-05-08 01:03 | 42.97403 | -83.49033 | 35960 ft | 385 kts | 292° |
| 2026-05-08 01:04 | 42.99625 | -83.55629 | 35959 ft | 385 kts | 292° |
| 2026-05-08 01:04 | 43.01855 | -83.62269 | 35967 ft | 384 kts | 292° |
| 2026-05-08 01:05 | 43.04078 | -83.68905 | 35966 ft | 384 kts | 292° |
| 2026-05-08 01:05 | 43.06302 | -83.75535 | 35995 ft | 384 kts | 292° |
| 2026-05-08 01:06 | 43.08517 | -83.82172 | 35977 ft | 384 kts | 292° |
| 2026-05-08 01:06 | 43.10718 | -83.88774 | 35973 ft | 384 kts | 292° |
| 2026-05-08 01:07 | 43.12929 | -83.95418 | 35966 ft | 383 kts | 292° |
| 2026-05-08 01:07 | 43.15128 | -84.02056 | 35964 ft | 382 kts | 292° |
| 2026-05-08 01:08 | 43.17322 | -84.08684 | 35963 ft | 382 kts | 292° |
| 2026-05-08 01:08 | 43.19497 | -84.15272 | 35966 ft | 382 kts | 292° |
| 2026-05-08 01:09 | 43.21675 | -84.21905 | 35964 ft | 382 kts | 292° |
| 2026-05-08 01:09 | 43.23852 | -84.28545 | 35959 ft | 382 kts | 292° |
| 2026-05-08 01:10 | 43.26022 | -84.35179 | 35957 ft | 381 kts | 292° |
| 2026-05-08 01:10 | 43.28170 | -84.41768 | 35952 ft | 381 kts | 292° |
| 2026-05-08 01:11 | 43.30336 | -84.48398 | 35982 ft | 381 kts | 292° |
| 2026-05-08 01:11 | 43.32498 | -84.55043 | 35961 ft | 381 kts | 292° |
| 2026-05-08 01:12 | 43.34657 | -84.61709 | 35943 ft | 382 kts | 292° |
| 2026-05-08 01:12 | 43.36795 | -84.68332 | 35931 ft | 382 kts | 292° |
| 2026-05-08 01:13 | 43.38947 | -84.75014 | 35932 ft | 382 kts | 292° |
| 2026-05-08 01:13 | 43.41102 | -84.81702 | 35938 ft | 382 kts | 292° |
| 2026-05-08 01:14 | 43.43249 | -84.88387 | 35956 ft | 382 kts | 292° |
| 2026-05-08 01:14 | 43.45383 | -84.95038 | 35952 ft | 382 kts | 292° |
| 2026-05-08 01:15 | 43.47557 | -85.01726 | 35962 ft | 382 kts | 292° |
| 2026-05-08 01:15 | 43.49739 | -85.08407 | 35956 ft | 382 kts | 293° |
| 2026-05-08 01:16 | 43.51907 | -85.15085 | 35961 ft | 382 kts | 292° |
| 2026-05-08 01:16 | 43.54057 | -85.21736 | 35984 ft | 383 kts | 292° |
| 2026-05-08 01:17 | 43.56221 | -85.28437 | 35960 ft | 383 kts | 292° |
| 2026-05-08 01:17 | 43.58382 | -85.35164 | 35955 ft | 384 kts | 292° |
| 2026-05-08 01:18 | 43.60542 | -85.41904 | 35937 ft | 384 kts | 292° |
| 2026-05-08 01:18 | 43.62686 | -85.48604 | 35941 ft | 384 kts | 292° |
| 2026-05-08 01:19 | 43.64842 | -85.55342 | 35943 ft | 383 kts | 292° |
| 2026-05-08 01:19 | 43.66990 | -85.62075 | 35951 ft | 383 kts | 292° |
| 2026-05-08 01:20 | 43.69133 | -85.68819 | 35953 ft | 383 kts | 292° |
| 2026-05-08 01:20 | 43.71270 | -85.75560 | 35948 ft | 383 kts | 292° |
| 2026-05-08 01:21 | 43.73407 | -85.82244 | 35957 ft | 383 kts | 293° |
| 2026-05-08 01:21 | 43.75597 | -85.88954 | 35960 ft | 383 kts | 293° |
| 2026-05-08 01:22 | 43.77797 | -85.95670 | 35965 ft | 384 kts | 293° |
| 2026-05-08 01:22 | 43.79989 | -86.02413 | 35962 ft | 385 kts | 293° |
| 2026-05-08 01:23 | 43.82158 | -86.09126 | 35959 ft | 385 kts | 293° |
| 2026-05-08 01:23 | 43.84345 | -86.15903 | 35960 ft | 386 kts | 293° |
| 2026-05-08 01:24 | 43.86527 | -86.22691 | 35973 ft | 385 kts | 292° |
| 2026-05-08 01:24 | 43.88698 | -86.29475 | 35962 ft | 385 kts | 292° |
| 2026-05-08 01:25 | 43.90850 | -86.36205 | 35960 ft | 384 kts | 292° |
| 2026-05-08 01:25 | 43.93013 | -86.42978 | 35962 ft | 384 kts | 292° |
| 2026-05-08 01:26 | 43.95166 | -86.49742 | 35959 ft | 383 kts | 292° |
| 2026-05-08 01:26 | 43.97320 | -86.56513 | 35962 ft | 383 kts | 292° |
| 2026-05-08 01:27 | 43.99470 | -86.63288 | 35965 ft | 384 kts | 292° |
| 2026-05-08 01:27 | 44.01595 | -86.70040 | 35959 ft | 384 kts | 292° |
| 2026-05-08 01:28 | 44.03738 | -86.76846 | 35962 ft | 385 kts | 292° |
| 2026-05-08 01:28 | 44.05886 | -86.83657 | 35959 ft | 385 kts | 292° |
| 2026-05-08 01:29 | 44.08024 | -86.90477 | 35957 ft | 385 kts | 292° |
| 2026-05-08 01:29 | 44.10140 | -86.97255 | 35936 ft | 385 kts | 292° |
| 2026-05-08 01:30 | 44.12274 | -87.04088 | 35947 ft | 385 kts | 292° |
| 2026-05-08 01:30 | 44.14400 | -87.10927 | 35953 ft | 385 kts | 292° |
| 2026-05-08 01:31 | 44.16504 | -87.17727 | 35953 ft | 385 kts | 292° |
| 2026-05-08 01:31 | 44.18621 | -87.24572 | 35954 ft | 385 kts | 292° |
| 2026-05-08 01:32 | 44.20735 | -87.31417 | 35963 ft | 385 kts | 292° |
| 2026-05-08 01:32 | 44.22849 | -87.38287 | 35927 ft | 386 kts | 292° |
| 2026-05-08 01:33 | 44.24950 | -87.45139 | 35927 ft | 387 kts | 292° |
| 2026-05-08 01:33 | 44.27065 | -87.52058 | 35929 ft | 388 kts | 292° |
| 2026-05-08 01:34 | 44.29176 | -87.58993 | 35930 ft | 388 kts | 292° |
| 2026-05-08 01:34 | 44.31291 | -87.65937 | 35934 ft | 389 kts | 292° |
| 2026-05-08 01:35 | 44.33405 | -87.72891 | 35921 ft | 389 kts | 292° |
| 2026-05-08 01:35 | 44.35498 | -87.79784 | 35944 ft | 388 kts | 292° |
| 2026-05-08 01:36 | 44.37597 | -87.86733 | 35947 ft | 388 kts | 292° |
| 2026-05-08 01:36 | 44.39689 | -87.93683 | 35943 ft | 388 kts | 292° |
| 2026-05-08 01:37 | 44.41778 | -88.00639 | 35958 ft | 388 kts | 292° |
| 2026-05-08 01:37 | 44.43861 | -88.07614 | 35944 ft | 389 kts | 292° |
| 2026-05-08 01:38 | 44.45931 | -88.14557 | 35919 ft | 389 kts | 293° |
| 2026-05-08 01:38 | 44.48019 | -88.21547 | 35929 ft | 389 kts | 292° |
| 2026-05-08 01:39 | 44.50096 | -88.28540 | 35936 ft | 389 kts | 292° |
| 2026-05-08 01:39 | 44.51810 | -88.35726 | 35942 ft | 389 kts | 288° |
| 2026-05-08 01:40 | 44.53418 | -88.42912 | 35944 ft | 389 kts | 288° |
| 2026-05-08 01:40 | 44.55042 | -88.50150 | 35933 ft | 389 kts | 288° |
| 2026-05-08 01:41 | 44.56661 | -88.57381 | 35937 ft | 389 kts | 288° |
| 2026-05-08 01:41 | 44.58263 | -88.64618 | 35942 ft | 388 kts | 288° |
| 2026-05-08 01:42 | 44.59855 | -88.71804 | 35945 ft | 388 kts | 288° |
| 2026-05-08 01:42 | 44.61453 | -88.79035 | 35963 ft | 388 kts | 288° |
| 2026-05-08 01:43 | 44.63049 | -88.86282 | 35940 ft | 389 kts | 288° |
| 2026-05-08 01:43 | 44.64644 | -88.93536 | 35940 ft | 388 kts | 288° |
| 2026-05-08 01:44 | 44.66214 | -89.00737 | 35943 ft | 388 kts | 288° |
| 2026-05-08 01:44 | 44.67795 | -89.07989 | 35945 ft | 388 kts | 288° |
| 2026-05-08 01:45 | 44.69376 | -89.15238 | 35947 ft | 388 kts | 288° |
| 2026-05-08 01:45 | 44.70943 | -89.22500 | 35944 ft | 388 kts | 288° |
| 2026-05-08 01:46 | 44.72505 | -89.29762 | 35934 ft | 388 kts | 288° |
| 2026-05-08 01:46 | 44.74053 | -89.36965 | 35921 ft | 387 kts | 288° |
| 2026-05-08 01:47 | 44.75606 | -89.44210 | 35914 ft | 387 kts | 288° |
| 2026-05-08 01:47 | 44.77153 | -89.51445 | 35905 ft | 386 kts | 288° |
| 2026-05-08 01:48 | 44.79451 | -89.62261 | 35901 ft | 386 kts | 288° |
| 2026-05-08 01:48 | 44.80980 | -89.69510 | 35900 ft | 386 kts | 288° |
| 2026-05-08 01:49 | 44.82505 | -89.76764 | 35902 ft | 386 kts | 288° |
| 2026-05-08 01:49 | 44.84037 | -89.84020 | 35910 ft | 386 kts | 288° |
| 2026-05-08 01:50 | 44.85549 | -89.91231 | 35915 ft | 386 kts | 288° |
| 2026-05-08 01:50 | 44.87058 | -89.98484 | 35921 ft | 386 kts | 288° |
| 2026-05-08 01:51 | 44.88562 | -90.05747 | 35918 ft | 386 kts | 288° |
| 2026-05-08 01:51 | 44.89474 | -90.13216 | 35927 ft | 388 kts | 280° |
| 2026-05-08 01:52 | 44.90136 | -90.20706 | 35931 ft | 387 kts | 280° |
| 2026-05-08 01:52 | 44.90796 | -90.28238 | 35936 ft | 387 kts | 280° |
| 2026-05-08 01:53 | 44.91450 | -90.35765 | 35937 ft | 386 kts | 280° |
| 2026-05-08 01:53 | 44.92090 | -90.43282 | 35927 ft | 386 kts | 280° |
| 2026-05-08 01:54 | 44.92734 | -90.50790 | 35935 ft | 385 kts | 280° |
| 2026-05-08 01:54 | 44.93370 | -90.58234 | 35936 ft | 384 kts | 280° |
| 2026-05-08 01:55 | 44.93996 | -90.65721 | 35926 ft | 384 kts | 280° |
| 2026-05-08 01:55 | 44.94307 | -90.69468 | 35815 ft | 386 kts | 280° |
| 2026-05-08 01:55 | 44.94628 | -90.73280 | 35508 ft | 398 kts | 280° |
| 2026-05-08 01:56 | 44.94958 | -90.77192 | 35242 ft | 403 kts | 280° |
| 2026-05-08 01:56 | 44.95284 | -90.81115 | 35003 ft | 401 kts | 280° |
| 2026-05-08 01:56 | 44.95604 | -90.85014 | 34757 ft | 398 kts | 281° |
| 2026-05-08 01:56 | 44.95921 | -90.88872 | 34245 ft | 395 kts | 281° |
| 2026-05-08 01:57 | 44.96232 | -90.92659 | 33725 ft | 391 kts | 281° |
| 2026-05-08 01:57 | 44.96542 | -90.96446 | 33079 ft | 388 kts | 281° |
| 2026-05-08 01:57 | 44.96853 | -91.00221 | 32446 ft | 386 kts | 281° |
| 2026-05-08 01:57 | 44.97160 | -91.03972 | 31869 ft | 383 kts | 281° |
| 2026-05-08 01:58 | 44.97462 | -91.07689 | 31298 ft | 379 kts | 281° |
| 2026-05-08 01:58 | 44.97758 | -91.11373 | 30740 ft | 376 kts | 281° |
| 2026-05-08 01:58 | 44.98049 | -91.15016 | 30139 ft | 372 kts | 282° |
| 2026-05-08 01:58 | 44.98335 | -91.18630 | 29583 ft | 367 kts | 282° |
| 2026-05-08 01:59 | 44.98611 | -91.22124 | 29053 ft | 361 kts | 282° |
| 2026-05-08 01:59 | 44.98885 | -91.25617 | 28546 ft | 355 kts | 282° |
| 2026-05-08 01:59 | 44.99154 | -91.29060 | 28027 ft | 350 kts | 281° |
| 2026-05-08 01:59 | 44.99421 | -91.32461 | 27518 ft | 346 kts | 281° |
| 2026-05-08 02:00 | 44.99685 | -91.35820 | 27024 ft | 342 kts | 281° |
| 2026-05-08 02:00 | 44.99943 | -91.39134 | 26556 ft | 337 kts | 281° |
| 2026-05-08 02:00 | 45.00197 | -91.42408 | 26103 ft | 333 kts | 281° |
| 2026-05-08 02:00 | 45.00447 | -91.45643 | 25659 ft | 329 kts | 281° |
| 2026-05-08 02:01 | 45.00696 | -91.48833 | 25219 ft | 326 kts | 281° |
| 2026-05-08 02:01 | 45.00944 | -91.52005 | 24787 ft | 323 kts | 281° |
| 2026-05-08 02:01 | 45.01183 | -91.55090 | 24356 ft | 318 kts | 281° |
| 2026-05-08 02:01 | 45.01417 | -91.58184 | 23943 ft | 315 kts | 281° |
| 2026-05-08 02:02 | 45.01647 | -91.61249 | 23519 ft | 312 kts | 281° |
| 2026-05-08 02:02 | 45.01877 | -91.64287 | 23042 ft | 309 kts | 281° |
| 2026-05-08 02:02 | 45.02103 | -91.67287 | 22613 ft | 305 kts | 281° |
| 2026-05-08 02:02 | 45.02324 | -91.70247 | 22195 ft | 301 kts | 281° |
| 2026-05-08 02:03 | 45.02542 | -91.73170 | 21771 ft | 297 kts | 281° |
| 2026-05-08 02:03 | 45.02755 | -91.76028 | 21362 ft | 295 kts | 281° |
| 2026-05-08 02:03 | 45.02972 | -91.78949 | 20937 ft | 294 kts | 281° |
| 2026-05-08 02:03 | 45.03182 | -91.81777 | 20522 ft | 293 kts | 281° |
| 2026-05-08 02:04 | 45.03394 | -91.84641 | 20108 ft | 292 kts | 281° |
| 2026-05-08 02:04 | 45.03604 | -91.87498 | 19679 ft | 292 kts | 280° |
| 2026-05-08 02:04 | 45.03815 | -91.90349 | 19257 ft | 291 kts | 280° |
| 2026-05-08 02:04 | 45.04023 | -91.93195 | 18834 ft | 290 kts | 281° |
| 2026-05-08 02:05 | 45.04227 | -91.96029 | 18423 ft | 289 kts | 280° |
| 2026-05-08 02:05 | 45.04429 | -91.98856 | 17979 ft | 289 kts | 280° |
| 2026-05-08 02:05 | 45.04630 | -92.01636 | 17534 ft | 287 kts | 280° |
| 2026-05-08 02:05 | 45.04832 | -92.04434 | 17234 ft | 285 kts | 280° |
| 2026-05-08 02:06 | 45.05032 | -92.07212 | 16851 ft | 284 kts | 280° |
| 2026-05-08 02:06 | 45.05230 | -92.09983 | 16456 ft | 282 kts | 280° |
| 2026-05-08 02:06 | 45.05426 | -92.12740 | 16062 ft | 281 kts | 280° |
| 2026-05-08 02:06 | 45.05619 | -92.15489 | 15673 ft | 280 kts | 280° |
| 2026-05-08 02:07 | 45.05810 | -92.18213 | 15282 ft | 278 kts | 280° |
| 2026-05-08 02:07 | 45.05939 | -92.20941 | 14899 ft | 279 kts | 274° |
| 2026-05-08 02:07 | 45.05717 | -92.23650 | 14512 ft | 283 kts | 263° |
| 2026-05-08 02:07 | 45.05288 | -92.26365 | 14118 ft | 283 kts | 263° |
| 2026-05-08 02:08 | 45.04860 | -92.29076 | 13722 ft | 282 kts | 263° |
| 2026-05-08 02:08 | 45.04436 | -92.31775 | 13281 ft | 281 kts | 263° |
| 2026-05-08 02:08 | 45.04013 | -92.34463 | 12885 ft | 279 kts | 263° |
| 2026-05-08 02:08 | 45.03593 | -92.37127 | 12478 ft | 277 kts | 263° |
| 2026-05-08 02:09 | 45.03176 | -92.39776 | 12080 ft | 275 kts | 262° |
| 2026-05-08 02:09 | 45.02761 | -92.42407 | 11678 ft | 273 kts | 262° |
| 2026-05-08 02:09 | 45.02348 | -92.45021 | 11290 ft | 272 kts | 262° |
| 2026-05-08 02:09 | 45.01944 | -92.47585 | 10903 ft | 270 kts | 261° |
| 2026-05-08 02:10 | 45.01536 | -92.50166 | 10507 ft | 269 kts | 261° |
| 2026-05-08 02:10 | 45.01128 | -92.52731 | 10169 ft | 265 kts | 261° |
| 2026-05-08 02:10 | 45.00699 | -92.55239 | 9908 ft | 260 kts | 256° |
| 2026-05-08 02:10 | 44.99935 | -92.57566 | 9797 ft | 264 kts | 242° |
| 2026-05-08 02:11 | 44.98754 | -92.59586 | 9637 ft | 270 kts | 230° |
| 2026-05-08 02:11 | 44.97392 | -92.61450 | 9094 ft | 274 kts | 229° |
| 2026-05-08 02:11 | 44.96029 | -92.63309 | 8610 ft | 274 kts | 229° |
| 2026-05-08 02:11 | 44.94682 | -92.65145 | 8234 ft | 271 kts | 229° |
| 2026-05-08 02:12 | 44.93331 | -92.66988 | 7819 ft | 270 kts | 229° |
| 2026-05-08 02:12 | 44.91986 | -92.68827 | 7489 ft | 265 kts | 228° |
| 2026-05-08 02:12 | 44.90686 | -92.70596 | 7352 ft | 255 kts | 229° |
| 2026-05-08 02:12 | 44.89428 | -92.72311 | 7105 ft | 248 kts | 229° |
| 2026-05-08 02:13 | 44.88204 | -92.73980 | 7004 ft | 241 kts | 229° |
| 2026-05-08 02:13 | 44.87038 | -92.75565 | 7010 ft | 226 kts | 229° |
| 2026-05-08 02:13 | 44.85911 | -92.77105 | 6879 ft | 226 kts | 229° |
| 2026-05-08 02:13 | 44.84802 | -92.78621 | 6617 ft | 224 kts | 229° |
| 2026-05-08 02:14 | 44.83690 | -92.80139 | 6398 ft | 222 kts | 229° |
| 2026-05-08 02:14 | 44.82581 | -92.81649 | 6144 ft | 221 kts | 229° |
| 2026-05-08 02:14 | 44.81475 | -92.83154 | 5907 ft | 220 kts | 229° |
| 2026-05-08 02:14 | 44.80436 | -92.84666 | 5683 ft | 210 kts | 237° |
| 2026-05-08 02:15 | 44.79763 | -92.86411 | 5459 ft | 198 kts | 254° |
| 2026-05-08 02:15 | 44.79493 | -92.88237 | 5267 ft | 184 kts | 269° |
| 2026-05-08 02:15 | 44.79530 | -92.89958 | 5073 ft | 170 kts | 273° |
| 2026-05-08 02:15 | 44.79539 | -92.91553 | 4891 ft | 160 kts | 273° |
| 2026-05-08 02:16 | 44.79545 | -92.93076 | 4723 ft | 151 kts | 273° |
| 2026-05-08 02:16 | 44.79564 | -92.94516 | 4579 ft | 144 kts | 274° |
| 2026-05-08 02:16 | 44.79583 | -92.95918 | 4406 ft | 142 kts | 273° |
| 2026-05-08 02:16 | 44.79595 | -92.97312 | 4259 ft | 142 kts | 273° |
| 2026-05-08 02:17 | 44.79628 | -92.98701 | 4100 ft | 142 kts | 276° |
| 2026-05-08 02:17 | 44.79824 | -93.00051 | 3986 ft | 141 kts | 289° |
| 2026-05-08 02:17 | 44.80246 | -93.01301 | 3777 ft | 141 kts | 302° |
| 2026-05-08 02:17 | 44.80785 | -93.02454 | 3627 ft | 141 kts | 302° |
| 2026-05-08 02:18 | 44.81299 | -93.03603 | 3421 ft | 141 kts | 301° |
| 2026-05-08 02:18 | 44.81814 | -93.04777 | 3232 ft | 141 kts | 300° |
| 2026-05-08 02:18 | 44.82322 | -93.05958 | 3032 ft | 141 kts | 301° |
| 2026-05-08 02:18 | 44.82845 | -93.07133 | 2857 ft | 142 kts | 301° |
| 2026-05-08 02:19 | 44.83346 | -93.08326 | 2616 ft | 141 kts | 299° |
| 2026-05-08 02:19 | 44.83841 | -93.09520 | 2438 ft | 141 kts | 300° |
| 2026-05-08 02:19 | 44.84353 | -93.10701 | 2273 ft | 142 kts | 301° |
| 2026-05-08 02:19 | 44.84854 | -93.11843 | 2090 ft | 135 kts | 301° |
| 2026-05-08 02:20 | 44.85341 | -93.12962 | 1901 ft | 133 kts | 301° |
| 2026-05-08 02:20 | 44.85818 | -93.14069 | 1717 ft | 133 kts | 300° |
| 2026-05-08 02:20 | 44.86305 | -93.15191 | 1521 ft | 135 kts | 301° |
| 2026-05-08 02:20 | 44.86804 | -93.16318 | 1402 ft | 136 kts | 300° |
| 2026-05-08 02:21 | 44.87287 | -93.17469 | 1207 ft | 136 kts | 300° |
| 2026-05-08 02:21 | 44.87786 | -93.18603 | 1026 ft | 136 kts | 300° |
| 2026-05-08 02:21 | 44.88275 | -93.19739 | 837 ft | 135 kts | 301° |
| 2026-05-08 02:21 | 44.88699 | -93.20728 | 824 ft | 89 kts | 302° |
| 2026-05-08 02:22 | 44.88928 | -93.21256 | 826 ft | 42 kts | 301° |
| 2026-05-08 02:22 | 44.89038 | -93.21502 | 823 ft | 17 kts | 294° |
| 2026-05-08 02:22 | 44.89013 | -93.21618 | 824 ft | 2 kts | 223° |
| 2026-05-08 02:22 | 44.89006 | -93.21627 | 823 ft | 0 kts | 226° |
| 2026-05-08 02:23 | 44.88994 | -93.21647 | 825 ft | 4 kts | 228° |
| 2026-05-08 02:23 | 44.88980 | -93.21668 | 821 ft | 2 kts | 226° |
| 2026-05-08 02:23 | 44.88972 | -93.21679 | 825 ft | 1 kts | 226° |
| 2026-05-08 02:24 | 44.88972 | -93.21680 | 825 ft | 0 kts | 226° |
| 2026-05-08 02:25 | 44.88946 | -93.21713 | 825 ft | 9 kts | 212° |
| 2026-05-08 02:25 | 44.88892 | -93.21697 | 826 ft | 8 kts | 141° |
| 2026-05-08 02:25 | 44.88860 | -93.21651 | 827 ft | 5 kts | 134° |
| 2026-05-08 02:25 | 44.88839 | -93.21621 | 825 ft | 4 kts | 135° |
| 2026-05-08 02:26 | 44.88824 | -93.21595 | 827 ft | 3 kts | 123° |
| 2026-05-08 02:26 | 44.88807 | -93.21542 | 828 ft | 8 kts | 111° |
| 2026-05-08 02:26 | 44.88785 | -93.21466 | 825 ft | 9 kts | 111° |
| 2026-05-08 02:26 | 44.88758 | -93.21386 | 826 ft | 9 kts | 131° |
| 2026-05-08 02:27 | 44.88707 | -93.21388 | 826 ft | 8 kts | 216° |
| 2026-05-08 02:27 | 44.88668 | -93.21441 | 826 ft | 8 kts | 225° |
| 2026-05-08 02:27 | 44.88630 | -93.21495 | 824 ft | 8 kts | 225° |
| 2026-05-08 02:27 | 44.88588 | -93.21554 | 826 ft | 9 kts | 225° |
| 2026-05-08 02:28 | 44.88541 | -93.21611 | 824 ft | 8 kts | 198° |
| 2026-05-08 02:28 | 44.88501 | -93.21552 | 826 ft | 11 kts | 123° |
| 2026-05-08 02:28 | 44.88465 | -93.21462 | 825 ft | 10 kts | 114° |
| 2026-05-08 02:28 | 44.88433 | -93.21381 | 825 ft | 8 kts | 146° |
| 2026-05-08 02:29 | 44.88393 | -93.21374 | 825 ft | 4 kts | 225° |
| 2026-05-08 02:29 | 44.88386 | -93.21382 | 823 ft | 3 kts | 218° |
| 2026-05-08 02:29 | 44.88380 | -93.21389 | 825 ft | 1 kts | 219° |
| 2026-05-08 02:29 | 44.88378 | -93.21392 | 825 ft | 0 kts | 218° |
| 2026-05-08 02:30 | 44.88376 | -93.21394 | 825 ft | 0 kts | 218° |